x

Boston 16 Nm East Of Boston, Ma (44013) Wave Buoy

6:50 - Thu 29th Jan 2015 All times are EST. -5 hours from GMT.

  • Sig Wave height 3.9ft
  • Swell Direction
  • Peak Period 11s
  • Average Period 5s
  • Wind
    11mph, 13mph gusts
  • Sea Temp 40°f
  • Luft Temp 26°f
  • Sea Pressure 1025.3mb
  • Boston 16 Nm East Of Boston, Ma
  • Boston 16 Nm East Of Boston, Ma

More Historic Weather Station data

Upgrade to MSW Pro to gain access to the past 30 days of data for over 8000 Wavebouys and Weather Stations around the globe.

Join Pro

Comparision Forecast

View Surf forecast
   
Do 01/29 6:50 4ft 11s 5s 11 13 mph 1025.3mb 40f 26f
5:50 4ft 11s 5s 11 13 mph 1025.2mb 40f 24f
4:50 4.5ft 7s 5s 9 11 mph 1025.1mb 40f 25f
3:50 4.5ft 7s 5s 11 13 mph 1025mb 40f 24f
2:50 5ft 7s 5s 16 20 mph 1024.9mb 40f 25f
1:50 5ft 8s 5s 20 22 mph 1024.3mb 40f 24f
12:50 5.5ft 7s 6s 16 20 mph 1023.6mb 40f 24f
Mi 01/28 11:50 6ft 11s 6s 18 22 mph 1023.1mb 40f 24f
10:50 5.5ft 11s 5s 18 22 mph 1022.8mb 40f 24f
9:50 6ft 11s 6s 22 27 mph 1021.7mb 40f 25f
8:50 6ft 8s 6s 20 25 mph 1021.1mb 40f 25f
7:50 6ft 8s 6s 20 25 mph 1020.2mb 40f 26f
6:50 6.5ft 8s 6s 22 25 mph 1019.3mb 40f 26f
5:50 7ft 10s 6s 20 25 mph 1018.1mb 40f 26f
4:50 7ft 8s 6s 18 25 mph 1016.9mb 40f 26f
3:50 7ft 9s 6s 20 25 mph 1016mb 40f 25f
2:50 7.5ft 10s 7s 20 27 mph 1015.1mb 40f 24f
1:50 9.5ft 10s 7s 18 25 mph 1014.6mb 40f 22f
12:50 8ft 10s 7s 16 20 mph 1014.2mb 40f 21f
11:50 10ft 11s 7s 18 25 mph 1014.1mb 40f 21f
10:50 10ft 11s 7s 22 29 mph 1014mb 40f 20f
9:50 11.5ft 10s 7s 22 29 mph 1013.1mb 40f 19f
8:50 12ft 11s 8s 25 29 mph 1012.1mb 40f 19f
7:50 11ft 11s 7s 25 34 mph 1010.9mb 40f 18f
6:50 12ft 11s 8s 22 29 mph 1009.6mb 41f 18f
5:50  -   -   -  25 29 mph 1008.3mb 41f 18f
4:50 15.5ft 11s 8s 27 31 mph 1006.8mb 41f 19f
3:50 14ft 11s 8s 25 34 mph 1006.1mb 41f 18f
2:50  -   -   -  27 34 mph 1005.3mb 41f 18f
1:50 16ft 12s 8s 29 36 mph 1004.2mb 41f 18f
12:50 17.5ft 13s 9s 29 36 mph 1003.3mb 40f 18f
Di 01/27 11:50 17ft 13s 8s 31 38 mph 1002.8mb 40f 18f
10:50 17.5ft 13s 9s 29 38 mph 1002.1mb 40f 19f
9:50 19.5ft 14s 9s 29 38 mph 1001.2mb 41f 20f
8:50 22.5ft 14s 9s 36 47 mph 997.8mb 41f 21f
7:50 23.5ft 13s 10s 36 45 mph 997.7mb 41f 22f
6:50  -   -   -  40 49 mph 997.4mb 41f -
5:50 24ft 13s 9s 43 54 mph 996.8mb 41f 22f
4:50 24ft 14s 10s 43 51 mph 996.1mb 41f 21f
3:50 26ft 14s 10s 40 47 mph 995.4mb 41f 21f
2:50 24ft 14s 9s 40 49 mph 995mb 41f 22f
1:50 26.5ft 14s 10s 47 56 mph 994mb 41f 24f
12:50 26ft 14s 10s 47 58 mph 993.9mb 40f 26f
11:50 27ft 14s 9s 47 60 mph 994mb 40f 26f
10:50 25.5ft 12s 9s 45 54 mph 995.8mb 40f 26f
9:50 24ft 11s 9s 47 60 mph 996.5mb 40f 25f
8:50 22.5ft 12s 9s 45 56 mph 997.1mb 41f 24f
7:50 24ft 11s 9s 45 58 mph 997.7mb 41f 24f
6:50 22ft 11s 8s 47 56 mph 997.9mb 41f 23f
5:50 22.5ft 11s 9s 47 60 mph 997.7mb 41f 24f
4:50 22.5ft 11s 8s 47 65 mph 997.4mb 41f 25f
3:50 19ft 11s 8s 47 58 mph 999.2mb 41f 27f
2:50 19.5ft 10s 8s 47 56 mph 1001.2mb 41f 28f
1:50 19.5ft 8s 8s 45 60 mph 1002.6mb 41f 29f
12:50 15.5ft 9s 7s 47 56 mph 1004.3mb 41f 29f
Mo 01/26 11:50 14ft 8s 7s 40 51 mph 1006.8mb 41f 30f
10:50 13ft 8s 7s 40 47 mph 1009.3mb 41f 30f
9:50 11ft 7s 6s 38 45 mph 1011.2mb 41f 31f
8:50 10ft 7s 6s 34 40 mph 1013.9mb 41f 31f
7:50 7.5ft 6s 5s 34 38 mph 1015mb 41f 31f
6:50 7ft 6s 5s 31 36 mph 1015.6mb 41f 31f
5:50 6ft 6s 5s 29 34 mph 1016.4mb 41f 31f
4:50 5ft 6s 5s 25 31 mph 1016.4mb 41f 30f
3:50 4.5ft 5s 4s 22 29 mph 1016.6mb 41f 30f
2:50 4.5ft 5s 4s 22 27 mph 1017mb 40f 29f
1:50 4ft 5s 4s 22 27 mph 1017.3mb 40f 29f
12:50 3.5ft 5s 4s 20 27 mph 1018.1mb 40f 28f
11:50 3.5ft 4s 4s 20 27 mph 1018.7mb 40f 28f
10:50 3.5ft 4s 4s 20 25 mph 1019.9mb 40f 27f
9:50 3ft 11s 4s 18 25 mph 1020.3mb 40f 26f
8:50 3ft 11s 4s 16 18 mph 1020.4mb 40f 25f
7:50 3ft 11s 4s 13 18 mph 1020.3mb 40f 24f
6:50 3ft 11s 5s 16 20 mph 1020.1mb 40f 19f
5:50 2.5ft 11s 4s 13 16 mph 1019.7mb 40f 18f
4:50 2.5ft 12s 4s 13 18 mph 1019.3mb 40f 18f
3:50 3.5ft 4s 4s 13 18 mph 1019.2mb 40f 18f
2:50 3.5ft 4s 4s 18 25 mph 1018.1mb 40f 18f
1:50 4.5ft 4s 4s 22 29 mph 1017.6mb 40f 20f
12:50 4.5ft 5s 4s 25 31 mph 1017.1mb 40f 22f
So 01/25 11:50 4.5ft 4s 4s 29 34 mph 1015.9mb 40f 23f
10:50 3.5ft 4s 4s 25 29 mph 1015.5mb 41f 25f
9:50 3.5ft 4s 4s 22 27 mph 1014.7mb 41f 27f
8:50  -   -   -  22 27 mph 1014.1mb 41f 28f
7:50 3.5ft 13s 4s 22 27 mph 1012.7mb 41f 29f
6:50 3.5ft 12s 4s 25 29 mph 1011mb 41f 31f
5:50 4ft 12s 4s 25 29 mph 1008.7mb 41f 34f
4:50 4ft 12s 4s 25 29 mph 1007.2mb 41f 35f
3:50 3.5ft 13s 4s 20 27 mph 1005.9mb 41f 36f
2:50 4ft 13s 5s 22 27 mph 1004.6mb 41f 36f
1:50 4ft 13s 4s 22 29 mph 1003mb 41f 37f
12:50 4ft 4s 4s 27 31 mph 1002.2mb 41f 37f